sensor_id;sensor_type;location;lat;lon;timestamp;P1;durP1;ratioP1;P2;durP2;ratioP2
72974;SDS011;61166;54.228;37.632;2022-12-13T00:00:57;10.32;;;2.95;;
72974;SDS011;61166;54.228;37.632;2022-12-13T00:03:23;8.85;;;3.40;;
72974;SDS011;61166;54.228;37.632;2022-12-13T00:05:50;9.90;;;3.28;;
72974;SDS011;61166;54.228;37.632;2022-12-13T00:08:17;15.85;;;3.80;;
72974;SDS011;61166;54.228;37.632;2022-12-13T00:10:44;11.00;;;3.20;;
72974;SDS011;61166;54.228;37.632;2022-12-13T00:13:10;10.93;;;3.80;;
72974;SDS011;61166;54.228;37.632;2022-12-13T00:15:37;14.60;;;4.00;;
72974;SDS011;61166;54.228;37.632;2022-12-13T00:18:03;12.50;;;3.78;;
72974;SDS011;61166;54.228;37.632;2022-12-13T00:20:30;19.27;;;5.07;;
72974;SDS011;61166;54.228;37.632;2022-12-13T00:22:56;17.10;;;5.43;;
72974;SDS011;61166;54.228;37.632;2022-12-13T00:25:23;12.85;;;3.42;;
72974;SDS011;61166;54.228;37.632;2022-12-13T00:27:49;7.80;;;2.88;;
72974;SDS011;61166;54.228;37.632;2022-12-13T00:30:16;19.85;;;5.68;;
72974;SDS011;61166;54.228;37.632;2022-12-13T00:32:42;12.57;;;3.67;;
72974;SDS011;61166;54.228;37.632;2022-12-13T00:35:09;22.73;;;6.57;;
72974;SDS011;61166;54.228;37.632;2022-12-13T00:37:36;15.80;;;5.15;;
72974;SDS011;61166;54.228;37.632;2022-12-13T00:40:02;16.98;;;5.43;;
72974;SDS011;61166;54.228;37.632;2022-12-13T00:42:29;8.27;;;3.03;;
72974;SDS011;61166;54.228;37.632;2022-12-13T00:44:55;19.73;;;5.40;;
72974;SDS011;61166;54.228;37.632;2022-12-13T00:47:22;8.03;;;2.87;;
72974;SDS011;61166;54.228;37.632;2022-12-13T00:49:49;17.15;;;5.30;;
72974;SDS011;61166;54.228;37.632;2022-12-13T00:52:15;17.23;;;5.82;;
72974;SDS011;61166;54.228;37.632;2022-12-13T00:54:42;11.45;;;4.75;;
72974;SDS011;61166;54.228;37.632;2022-12-13T00:57:08;17.67;;;4.93;;
72974;SDS011;61166;54.228;37.632;2022-12-13T00:59:35;16.40;;;5.07;;
72974;SDS011;61166;54.228;37.632;2022-12-13T01:02:01;14.75;;;4.72;;
72974;SDS011;61166;54.228;37.632;2022-12-13T01:04:28;17.38;;;5.70;;
72974;SDS011;61166;54.228;37.632;2022-12-13T01:06:55;10.25;;;3.83;;
72974;SDS011;61166;54.228;37.632;2022-12-13T01:09:25;7.05;;;3.50;;
72974;SDS011;61166;54.228;37.632;2022-12-13T01:12:00;9.13;;;3.30;;
72974;SDS011;61166;54.228;37.632;2022-12-13T01:14:28;9.13;;;3.35;;
72974;SDS011;61166;54.228;37.632;2022-12-13T01:16:55;10.10;;;3.85;;
72974;SDS011;61166;54.228;37.632;2022-12-13T01:19:22;22.13;;;5.82;;
72974;SDS011;61166;54.228;37.632;2022-12-13T01:21:56;16.08;;;4.85;;
72974;SDS011;61166;54.228;37.632;2022-12-13T01:24:25;14.13;;;3.93;;
72974;SDS011;61166;54.228;37.632;2022-12-13T01:26:52;17.33;;;4.57;;
72974;SDS011;61166;54.228;37.632;2022-12-13T01:29:22;12.10;;;4.68;;
72974;SDS011;61166;54.228;37.632;2022-12-13T01:31:51;30.80;;;7.78;;
72974;SDS011;61166;54.228;37.632;2022-12-13T01:34:19;19.23;;;5.10;;
72974;SDS011;61166;54.228;37.632;2022-12-13T01:36:52;14.07;;;4.70;;
72974;SDS011;61166;54.228;37.632;2022-12-13T01:39:24;21.85;;;6.03;;
72974;SDS011;61166;54.228;37.632;2022-12-13T01:41:52;24.27;;;5.53;;
72974;SDS011;61166;54.228;37.632;2022-12-13T01:47:25;12.70;;;4.40;;
72974;SDS011;61166;54.228;37.632;2022-12-13T01:50:14;15.03;;;4.73;;
72974;SDS011;61166;54.228;37.632;2022-12-13T01:52:44;10.88;;;4.43;;
72974;SDS011;61166;54.228;37.632;2022-12-13T01:55:12;27.25;;;7.72;;
72974;SDS011;61166;54.228;37.632;2022-12-13T01:57:41;18.08;;;5.25;;
72974;SDS011;61166;54.228;37.632;2022-12-13T02:00:12;20.73;;;5.85;;
72974;SDS011;61166;54.228;37.632;2022-12-13T02:02:39;25.30;;;6.30;;
72974;SDS011;61166;54.228;37.632;2022-12-13T02:05:18;16.55;;;5.20;;
72974;SDS011;61166;54.228;37.632;2022-12-13T02:07:50;13.40;;;5.50;;
72974;SDS011;61166;54.228;37.632;2022-12-13T02:10:17;26.00;;;6.65;;
72974;SDS011;61166;54.228;37.632;2022-12-13T02:12:44;10.77;;;4.50;;
72974;SDS011;61166;54.228;37.632;2022-12-13T02:15:14;14.87;;;5.03;;
72974;SDS011;61166;54.228;37.632;2022-12-13T02:17:59;25.42;;;6.82;;
72974;SDS011;61166;54.228;37.632;2022-12-13T02:29:16;18.37;;;5.07;;
72974;SDS011;61166;54.228;37.632;2022-12-13T02:35:04;19.92;;;5.18;;
72974;SDS011;61166;54.228;37.632;2022-12-13T02:40:19;23.98;;;6.10;;
72974;SDS011;61166;54.228;37.632;2022-12-13T02:42:57;22.87;;;5.70;;
72974;SDS011;61166;54.228;37.632;2022-12-13T02:45:31;35.13;;;8.32;;
72974;SDS011;61166;54.228;37.632;2022-12-13T02:48:03;20.30;;;5.65;;
72974;SDS011;61166;54.228;37.632;2022-12-13T02:50:32;21.83;;;6.68;;
72974;SDS011;61166;54.228;37.632;2022-12-13T02:53:00;19.80;;;5.55;;
72974;SDS011;61166;54.228;37.632;2022-12-13T02:55:27;16.40;;;3.87;;
72974;SDS011;61166;54.228;37.632;2022-12-13T02:57:54;15.77;;;4.88;;
72974;SDS011;61166;54.228;37.632;2022-12-13T03:00:28;15.15;;;4.05;;
72974;SDS011;61166;54.228;37.632;2022-12-13T03:03:01;15.93;;;4.57;;
72974;SDS011;61166;54.228;37.632;2022-12-13T03:08:30;16.33;;;4.13;;
72974;SDS011;61166;54.228;37.632;2022-12-13T03:16:32;16.20;;;4.75;;
72974;SDS011;61166;54.228;37.632;2022-12-13T03:19:09;15.20;;;4.53;;
72974;SDS011;61166;54.228;37.632;2022-12-13T03:21:38;16.30;;;4.57;;
72974;SDS011;61166;54.228;37.632;2022-12-13T03:24:15;12.05;;;3.80;;
72974;SDS011;61166;54.228;37.632;2022-12-13T03:26:43;16.92;;;4.18;;
72974;SDS011;61166;54.228;37.632;2022-12-13T03:29:11;14.15;;;4.10;;
72974;SDS011;61166;54.228;37.632;2022-12-13T03:31:48;15.82;;;3.45;;
72974;SDS011;61166;54.228;37.632;2022-12-13T03:34:15;17.33;;;3.80;;
72974;SDS011;61166;54.228;37.632;2022-12-13T03:36:48;20.33;;;5.18;;
72974;SDS011;61166;54.228;37.632;2022-12-13T03:39:15;11.30;;;3.38;;
72974;SDS011;61166;54.228;37.632;2022-12-13T03:41:42;26.02;;;5.60;;
72974;SDS011;61166;54.228;37.632;2022-12-13T03:44:08;27.63;;;7.82;;
72974;SDS011;61166;54.228;37.632;2022-12-13T03:46:35;14.83;;;5.27;;
72974;SDS011;61166;54.228;37.632;2022-12-13T03:49:02;23.30;;;5.50;;
72974;SDS011;61166;54.228;37.632;2022-12-13T03:51:28;10.00;;;2.90;;
72974;SDS011;61166;54.228;37.632;2022-12-13T03:53:55;17.52;;;5.30;;
72974;SDS011;61166;54.228;37.632;2022-12-13T03:56:22;22.90;;;6.13;;
72974;SDS011;61166;54.228;37.632;2022-12-13T03:58:48;14.30;;;3.10;;
72974;SDS011;61166;54.228;37.632;2022-12-13T04:01:15;20.45;;;5.15;;
72974;SDS011;61166;54.228;37.632;2022-12-13T04:03:43;6.15;;;2.63;;
72974;SDS011;61166;54.228;37.632;2022-12-13T04:06:10;15.52;;;4.28;;
72974;SDS011;61166;54.228;37.632;2022-12-13T04:08:47;15.27;;;3.67;;
72974;SDS011;61166;54.228;37.632;2022-12-13T04:11:16;23.87;;;5.50;;
72974;SDS011;61166;54.228;37.632;2022-12-13T04:13:43;18.17;;;4.47;;
72974;SDS011;61166;54.228;37.632;2022-12-13T04:16:10;22.83;;;5.50;;
72974;SDS011;61166;54.228;37.632;2022-12-13T04:18:37;23.70;;;5.43;;
72974;SDS011;61166;54.228;37.632;2022-12-13T04:21:04;11.38;;;3.78;;
72974;SDS011;61166;54.228;37.632;2022-12-13T04:23:30;11.77;;;3.60;;
72974;SDS011;61166;54.228;37.632;2022-12-13T04:25:57;24.23;;;5.25;;
72974;SDS011;61166;54.228;37.632;2022-12-13T04:28:25;8.88;;;2.92;;
72974;SDS011;61166;54.228;37.632;2022-12-13T04:30:52;7.32;;;2.28;;
72974;SDS011;61166;54.228;37.632;2022-12-13T04:33:22;6.13;;;2.63;;
72974;SDS011;61166;54.228;37.632;2022-12-13T04:35:50;14.70;;;4.10;;
72974;SDS011;61166;54.228;37.632;2022-12-13T04:38:17;17.80;;;4.53;;
72974;SDS011;61166;54.228;37.632;2022-12-13T04:40:44;7.85;;;2.90;;
72974;SDS011;61166;54.228;37.632;2022-12-13T04:43:10;12.52;;;4.03;;
72974;SDS011;61166;54.228;37.632;2022-12-13T04:45:37;7.40;;;2.97;;
72974;SDS011;61166;54.228;37.632;2022-12-13T04:48:04;11.57;;;3.23;;
72974;SDS011;61166;54.228;37.632;2022-12-13T04:50:30;9.48;;;2.78;;
72974;SDS011;61166;54.228;37.632;2022-12-13T04:52:57;12.85;;;4.65;;
72974;SDS011;61166;54.228;37.632;2022-12-13T04:55:24;9.45;;;3.17;;
72974;SDS011;61166;54.228;37.632;2022-12-13T04:57:50;6.38;;;2.08;;
72974;SDS011;61166;54.228;37.632;2022-12-13T05:00:17;18.93;;;4.83;;
72974;SDS011;61166;54.228;37.632;2022-12-13T05:02:43;14.63;;;4.10;;
72974;SDS011;61166;54.228;37.632;2022-12-13T05:05:10;12.75;;;3.90;;
72974;SDS011;61166;54.228;37.632;2022-12-13T05:07:37;24.58;;;6.55;;
72974;SDS011;61166;54.228;37.632;2022-12-13T05:10:08;17.55;;;4.43;;
72974;SDS011;61166;54.228;37.632;2022-12-13T05:12:37;19.33;;;6.03;;
72974;SDS011;61166;54.228;37.632;2022-12-13T05:15:04;17.92;;;5.07;;
72974;SDS011;61166;54.228;37.632;2022-12-13T05:17:31;24.27;;;6.70;;
72974;SDS011;61166;54.228;37.632;2022-12-13T05:19:58;30.48;;;5.68;;
72974;SDS011;61166;54.228;37.632;2022-12-13T05:22:24;16.95;;;5.43;;
72974;SDS011;61166;54.228;37.632;2022-12-13T05:24:51;8.53;;;2.90;;
72974;SDS011;61166;54.228;37.632;2022-12-13T05:27:18;16.05;;;4.80;;
72974;SDS011;61166;54.228;37.632;2022-12-13T05:29:54;12.77;;;3.67;;
72974;SDS011;61166;54.228;37.632;2022-12-13T05:32:32;9.32;;;3.83;;
72974;SDS011;61166;54.228;37.632;2022-12-13T05:35:16;20.13;;;5.05;;
72974;SDS011;61166;54.228;37.632;2022-12-13T05:37:52;9.37;;;3.13;;
72974;SDS011;61166;54.228;37.632;2022-12-13T05:40:24;13.35;;;4.47;;
72974;SDS011;61166;54.228;37.632;2022-12-13T05:42:52;14.88;;;4.55;;
72974;SDS011;61166;54.228;37.632;2022-12-13T05:45:27;14.05;;;4.30;;
72974;SDS011;61166;54.228;37.632;2022-12-13T05:47:55;11.00;;;3.47;;
72974;SDS011;61166;54.228;37.632;2022-12-13T05:50:21;13.97;;;4.40;;
72974;SDS011;61166;54.228;37.632;2022-12-13T05:52:48;15.32;;;4.45;;
72974;SDS011;61166;54.228;37.632;2022-12-13T05:55:15;18.00;;;5.40;;
72974;SDS011;61166;54.228;37.632;2022-12-13T05:57:42;9.20;;;3.88;;
72974;SDS011;61166;54.228;37.632;2022-12-13T06:00:16;16.17;;;4.97;;
72974;SDS011;61166;54.228;37.632;2022-12-13T06:02:56;15.07;;;3.70;;
72974;SDS011;61166;54.228;37.632;2022-12-13T06:05:27;12.65;;;3.17;;
72974;SDS011;61166;54.228;37.632;2022-12-13T06:07:54;10.88;;;3.42;;
72974;SDS011;61166;54.228;37.632;2022-12-13T06:10:23;10.00;;;3.60;;
72974;SDS011;61166;54.228;37.632;2022-12-13T06:13:04;16.60;;;4.15;;
72974;SDS011;61166;54.228;37.632;2022-12-13T06:15:51;9.33;;;3.30;;
72974;SDS011;61166;54.228;37.632;2022-12-13T06:18:27;7.15;;;2.38;;
72974;SDS011;61166;54.228;37.632;2022-12-13T06:20:56;8.82;;;2.60;;
72974;SDS011;61166;54.228;37.632;2022-12-13T06:23:24;12.13;;;3.60;;
72974;SDS011;61166;54.228;37.632;2022-12-13T06:25:51;20.50;;;5.60;;
72974;SDS011;61166;54.228;37.632;2022-12-13T06:28:18;13.80;;;3.53;;
72974;SDS011;61166;54.228;37.632;2022-12-13T06:30:45;19.42;;;6.38;;
72974;SDS011;61166;54.228;37.632;2022-12-13T06:33:11;13.57;;;4.18;;
72974;SDS011;61166;54.228;37.632;2022-12-13T06:35:38;21.13;;;6.72;;
72974;SDS011;61166;54.228;37.632;2022-12-13T06:38:06;16.15;;;4.68;;
72974;SDS011;61166;54.228;37.632;2022-12-13T06:40:37;9.20;;;3.87;;
72974;SDS011;61166;54.228;37.632;2022-12-13T06:43:04;8.00;;;3.33;;
72974;SDS011;61166;54.228;37.632;2022-12-13T06:45:30;5.32;;;2.25;;
72974;SDS011;61166;54.228;37.632;2022-12-13T06:47:57;9.48;;;3.30;;
72974;SDS011;61166;54.228;37.632;2022-12-13T06:50:23;23.38;;;7.35;;
72974;SDS011;61166;54.228;37.632;2022-12-13T06:52:50;21.53;;;5.57;;
72974;SDS011;61166;54.228;37.632;2022-12-13T06:55:16;10.27;;;3.90;;
72974;SDS011;61166;54.228;37.632;2022-12-13T06:57:49;18.52;;;6.38;;
72974;SDS011;61166;54.228;37.632;2022-12-13T07:00:16;11.30;;;3.90;;
72974;SDS011;61166;54.228;37.632;2022-12-13T07:02:54;20.50;;;6.30;;
72974;SDS011;61166;54.228;37.632;2022-12-13T07:05:21;15.00;;;4.83;;
72974;SDS011;61166;54.228;37.632;2022-12-13T07:07:47;11.10;;;4.07;;
72974;SDS011;61166;54.228;37.632;2022-12-13T07:10:15;6.70;;;2.75;;
72974;SDS011;61166;54.228;37.632;2022-12-13T07:12:48;10.60;;;2.97;;
72974;SDS011;61166;54.228;37.632;2022-12-13T07:15:15;16.70;;;5.93;;
72974;SDS011;61166;54.228;37.632;2022-12-13T07:17:43;4.67;;;2.43;;
72974;SDS011;61166;54.228;37.632;2022-12-13T07:20:13;20.75;;;5.50;;
72974;SDS011;61166;54.228;37.632;2022-12-13T07:22:40;8.82;;;3.63;;
72974;SDS011;61166;54.228;37.632;2022-12-13T07:25:14;14.48;;;4.63;;
72974;SDS011;61166;54.228;37.632;2022-12-13T07:27:54;24.75;;;5.38;;
72974;SDS011;61166;54.228;37.632;2022-12-13T07:30:28;37.47;;;9.07;;
72974;SDS011;61166;54.228;37.632;2022-12-13T07:32:56;36.05;;;9.43;;
72974;SDS011;61166;54.228;37.632;2022-12-13T07:35:23;37.60;;;8.90;;
72974;SDS011;61166;54.228;37.632;2022-12-13T07:37:49;26.55;;;6.53;;
72974;SDS011;61166;54.228;37.632;2022-12-13T07:40:16;25.70;;;5.57;;
72974;SDS011;61166;54.228;37.632;2022-12-13T07:42:53;9.07;;;3.20;;
72974;SDS011;61166;54.228;37.632;2022-12-13T07:45:21;18.23;;;5.32;;
72974;SDS011;61166;54.228;37.632;2022-12-13T07:47:48;17.35;;;5.47;;
72974;SDS011;61166;54.228;37.632;2022-12-13T07:50:15;19.38;;;6.25;;
72974;SDS011;61166;54.228;37.632;2022-12-13T07:52:51;23.95;;;5.80;;
72974;SDS011;61166;54.228;37.632;2022-12-13T07:55:18;22.97;;;6.50;;
72974;SDS011;61166;54.228;37.632;2022-12-13T07:57:48;23.02;;;6.93;;
72974;SDS011;61166;54.228;37.632;2022-12-13T08:00:15;16.45;;;5.57;;
72974;SDS011;61166;54.228;37.632;2022-12-13T08:02:41;14.80;;;5.13;;
72974;SDS011;61166;54.228;37.632;2022-12-13T08:05:08;7.38;;;2.63;;
72974;SDS011;61166;54.228;37.632;2022-12-13T08:07:52;10.33;;;3.20;;
72974;SDS011;61166;54.228;37.632;2022-12-13T08:10:19;11.30;;;3.47;;
72974;SDS011;61166;54.228;37.632;2022-12-13T08:12:46;15.77;;;4.60;;
72974;SDS011;61166;54.228;37.632;2022-12-13T08:15:12;10.98;;;4.53;;
72974;SDS011;61166;54.228;37.632;2022-12-13T08:17:40;12.27;;;4.63;;
72974;SDS011;61166;54.228;37.632;2022-12-13T08:20:07;11.20;;;4.20;;
72974;SDS011;61166;54.228;37.632;2022-12-13T08:22:34;12.05;;;4.25;;
72974;SDS011;61166;54.228;37.632;2022-12-13T08:25:01;8.98;;;4.50;;
72974;SDS011;61166;54.228;37.632;2022-12-13T08:27:28;10.10;;;4.60;;
72974;SDS011;61166;54.228;37.632;2022-12-13T08:29:55;9.57;;;4.00;;
72974;SDS011;61166;54.228;37.632;2022-12-13T08:32:21;10.37;;;3.33;;
72974;SDS011;61166;54.228;37.632;2022-12-13T08:34:49;7.78;;;3.33;;
72974;SDS011;61166;54.228;37.632;2022-12-13T08:37:15;8.20;;;3.70;;
72974;SDS011;61166;54.228;37.632;2022-12-13T08:39:42;9.93;;;2.90;;
72974;SDS011;61166;54.228;37.632;2022-12-13T08:42:13;10.25;;;3.45;;
72974;SDS011;61166;54.228;37.632;2022-12-13T08:44:48;6.10;;;2.40;;
72974;SDS011;61166;54.228;37.632;2022-12-13T08:47:17;11.50;;;3.65;;
72974;SDS011;61166;54.228;37.632;2022-12-13T08:49:52;13.00;;;4.50;;
72974;SDS011;61166;54.228;37.632;2022-12-13T08:52:21;8.77;;;3.78;;
72974;SDS011;61166;54.228;37.632;2022-12-13T08:54:48;7.85;;;2.80;;
72974;SDS011;61166;54.228;37.632;2022-12-13T08:57:14;11.30;;;3.83;;
72974;SDS011;61166;54.228;37.632;2022-12-13T08:59:41;8.35;;;3.55;;
72974;SDS011;61166;54.228;37.632;2022-12-13T09:02:11;6.57;;;3.95;;
72974;SDS011;61166;54.228;37.632;2022-12-13T09:04:39;8.70;;;3.45;;
72974;SDS011;61166;54.228;37.632;2022-12-13T09:07:06;5.40;;;2.60;;
72974;SDS011;61166;54.228;37.632;2022-12-13T09:09:33;4.93;;;1.93;;
72974;SDS011;61166;54.228;37.632;2022-12-13T09:12:00;7.40;;;2.80;;
72974;SDS011;61166;54.228;37.632;2022-12-13T09:14:35;10.48;;;4.20;;
72974;SDS011;61166;54.228;37.632;2022-12-13T09:17:10;5.93;;;2.50;;
72974;SDS011;61166;54.228;37.632;2022-12-13T09:19:49;8.25;;;3.55;;
72974;SDS011;61166;54.228;37.632;2022-12-13T09:22:23;9.93;;;3.73;;
72974;SDS011;61166;54.228;37.632;2022-12-13T09:24:59;12.23;;;4.68;;
72974;SDS011;61166;54.228;37.632;2022-12-13T09:27:28;11.13;;;4.40;;
72974;SDS011;61166;54.228;37.632;2022-12-13T09:30:05;9.75;;;4.13;;
72974;SDS011;61166;54.228;37.632;2022-12-13T09:32:33;10.68;;;4.57;;
72974;SDS011;61166;54.228;37.632;2022-12-13T09:34:59;8.57;;;3.20;;
72974;SDS011;61166;54.228;37.632;2022-12-13T09:37:26;12.70;;;5.25;;
72974;SDS011;61166;54.228;37.632;2022-12-13T09:39:54;11.18;;;5.80;;
72974;SDS011;61166;54.228;37.632;2022-12-13T09:42:21;11.00;;;4.88;;
72974;SDS011;61166;54.228;37.632;2022-12-13T09:45:05;13.35;;;5.97;;
72974;SDS011;61166;54.228;37.632;2022-12-13T09:47:48;7.40;;;3.37;;
72974;SDS011;61166;54.228;37.632;2022-12-13T09:52:50;12.45;;;5.65;;
72974;SDS011;61166;54.228;37.632;2022-12-13T09:55:26;19.92;;;8.43;;
72974;SDS011;61166;54.228;37.632;2022-12-13T09:57:56;12.15;;;5.55;;
72974;SDS011;61166;54.228;37.632;2022-12-13T10:00:26;11.23;;;4.67;;
72974;SDS011;61166;54.228;37.632;2022-12-13T10:02:59;10.18;;;5.13;;
72974;SDS011;61166;54.228;37.632;2022-12-13T10:08:10;13.75;;;7.88;;
72974;SDS011;61166;54.228;37.632;2022-12-13T10:10:39;17.10;;;9.48;;
72974;SDS011;61166;54.228;37.632;2022-12-13T10:13:09;16.60;;;8.90;;
72974;SDS011;61166;54.228;37.632;2022-12-13T10:15:39;18.90;;;10.50;;
72974;SDS011;61166;54.228;37.632;2022-12-13T10:18:08;16.90;;;9.73;;
72974;SDS011;61166;54.228;37.632;2022-12-13T10:20:39;12.93;;;7.13;;
72974;SDS011;61166;54.228;37.632;2022-12-13T10:23:09;14.93;;;7.18;;
72974;SDS011;61166;54.228;37.632;2022-12-13T10:25:55;11.87;;;5.67;;
72974;SDS011;61166;54.228;37.632;2022-12-13T10:28:29;14.38;;;5.28;;
72974;SDS011;61166;54.228;37.632;2022-12-13T10:30:59;14.93;;;6.70;;
72974;SDS011;61166;54.228;37.632;2022-12-13T10:33:28;12.50;;;5.25;;
72974;SDS011;61166;54.228;37.632;2022-12-13T10:36:07;12.38;;;5.75;;
72974;SDS011;61166;54.228;37.632;2022-12-13T10:38:42;8.37;;;3.30;;
72974;SDS011;61166;54.228;37.632;2022-12-13T10:41:26;15.68;;;5.20;;
72974;SDS011;61166;54.228;37.632;2022-12-13T10:49:29;11.90;;;5.63;;
72974;SDS011;61166;54.228;37.632;2022-12-13T10:52:00;20.57;;;6.60;;
72974;SDS011;61166;54.228;37.632;2022-12-13T10:54:28;17.00;;;5.90;;
72974;SDS011;61166;54.228;37.632;2022-12-13T10:57:13;20.38;;;7.60;;
72974;SDS011;61166;54.228;37.632;2022-12-13T10:59:40;16.48;;;5.97;;
72974;SDS011;61166;54.228;37.632;2022-12-13T11:04:59;21.27;;;8.83;;
72974;SDS011;61166;54.228;37.632;2022-12-13T11:07:48;19.45;;;7.35;;
72974;SDS011;61166;54.228;37.632;2022-12-13T11:10:28;15.88;;;7.30;;
72974;SDS011;61166;54.228;37.632;2022-12-13T11:12:59;14.98;;;6.13;;
72974;SDS011;61166;54.228;37.632;2022-12-13T11:15:29;15.98;;;6.43;;
72974;SDS011;61166;54.228;37.632;2022-12-13T11:17:59;12.03;;;4.83;;
72974;SDS011;61166;54.228;37.632;2022-12-13T11:20:30;12.88;;;5.25;;
72974;SDS011;61166;54.228;37.632;2022-12-13T11:23:45;14.55;;;6.47;;
72974;SDS011;61166;54.228;37.632;2022-12-13T11:26:07;12.50;;;5.00;;
72974;SDS011;61166;54.228;37.632;2022-12-13T11:28:39;10.73;;;4.95;;
72974;SDS011;61166;54.228;37.632;2022-12-13T11:39:38;13.52;;;5.40;;
72974;SDS011;61166;54.228;37.632;2022-12-13T11:44:39;13.73;;;6.17;;
72974;SDS011;61166;54.228;37.632;2022-12-13T11:47:20;14.32;;;5.78;;
72974;SDS011;61166;54.228;37.632;2022-12-13T11:49:51;15.02;;;6.80;;
72974;SDS011;61166;54.228;37.632;2022-12-13T11:52:26;12.88;;;5.97;;
72974;SDS011;61166;54.228;37.632;2022-12-13T11:54:59;14.05;;;5.75;;
72974;SDS011;61166;54.228;37.632;2022-12-13T11:57:31;10.80;;;4.70;;
72974;SDS011;61166;54.228;37.632;2022-12-13T12:03:11;10.65;;;4.82;;
72974;SDS011;61166;54.228;37.632;2022-12-13T12:05:50;11.25;;;5.40;;
72974;SDS011;61166;54.228;37.632;2022-12-13T12:08:26;12.68;;;5.22;;
72974;SDS011;61166;54.228;37.632;2022-12-13T12:13:53;12.20;;;4.90;;
72974;SDS011;61166;54.228;37.632;2022-12-13T12:19:14;12.48;;;5.15;;
72974;SDS011;61166;54.228;37.632;2022-12-13T12:22:02;10.73;;;4.72;;
72974;SDS011;61166;54.228;37.632;2022-12-13T12:43:43;15.77;;;6.90;;
72974;SDS011;61166;54.228;37.632;2022-12-13T12:46:27;14.40;;;5.80;;
72974;SDS011;61166;54.228;37.632;2022-12-13T12:52:16;13.77;;;5.27;;
72974;SDS011;61166;54.228;37.632;2022-12-13T12:54:53;14.82;;;5.68;;
72974;SDS011;61166;54.228;37.632;2022-12-13T13:00:17;15.20;;;6.53;;
72974;SDS011;61166;54.228;37.632;2022-12-13T13:05:53;14.33;;;5.57;;
72974;SDS011;61166;54.228;37.632;2022-12-13T13:11:21;16.45;;;6.07;;
72974;SDS011;61166;54.228;37.632;2022-12-13T13:14:38;17.90;;;7.65;;
72974;SDS011;61166;54.228;37.632;2022-12-13T13:17:00;21.92;;;8.73;;
72974;SDS011;61166;54.228;37.632;2022-12-13T13:19:48;21.50;;;7.80;;
72974;SDS011;61166;54.228;37.632;2022-12-13T13:22:34;20.05;;;7.72;;
72974;SDS011;61166;54.228;37.632;2022-12-13T13:25:21;22.48;;;7.78;;
72974;SDS011;61166;54.228;37.632;2022-12-13T13:27:59;23.42;;;9.75;;
72974;SDS011;61166;54.228;37.632;2022-12-13T13:30:28;17.65;;;7.70;;
72974;SDS011;61166;54.228;37.632;2022-12-13T13:32:56;23.70;;;9.20;;
72974;SDS011;61166;54.228;37.632;2022-12-13T13:37:55;21.63;;;9.57;;
72974;SDS011;61166;54.228;37.632;2022-12-13T13:40:31;17.85;;;7.35;;
72974;SDS011;61166;54.228;37.632;2022-12-13T13:45:28;19.93;;;8.30;;
72974;SDS011;61166;54.228;37.632;2022-12-13T13:51:05;31.60;;;14.25;;
72974;SDS011;61166;54.228;37.632;2022-12-13T14:10:24;33.10;;;12.27;;
72974;SDS011;61166;54.228;37.632;2022-12-13T14:30:11;33.78;;;12.45;;
72974;SDS011;61166;54.228;37.632;2022-12-13T14:32:54;21.77;;;8.85;;
72974;SDS011;61166;54.228;37.632;2022-12-13T14:35:23;24.55;;;8.02;;
72974;SDS011;61166;54.228;37.632;2022-12-13T14:38:01;16.95;;;6.78;;
72974;SDS011;61166;54.228;37.632;2022-12-13T14:40:33;20.77;;;8.10;;
72974;SDS011;61166;54.228;37.632;2022-12-13T14:43:01;49.13;;;11.30;;
72974;SDS011;61166;54.228;37.632;2022-12-13T14:45:29;28.42;;;10.40;;
72974;SDS011;61166;54.228;37.632;2022-12-13T14:48:00;71.70;;;11.35;;
72974;SDS011;61166;54.228;37.632;2022-12-13T14:50:31;33.30;;;10.77;;
72974;SDS011;61166;54.228;37.632;2022-12-13T14:53:00;77.20;;;13.17;;
72974;SDS011;61166;54.228;37.632;2022-12-13T14:57:58;40.45;;;14.00;;
72974;SDS011;61166;54.228;37.632;2022-12-13T15:00:28;102.90;;;12.32;;
72974;SDS011;61166;54.228;37.632;2022-12-13T15:03:01;49.38;;;8.77;;
72974;SDS011;61166;54.228;37.632;2022-12-13T15:05:31;43.93;;;7.77;;
72974;SDS011;61166;54.228;37.632;2022-12-13T15:08:06;57.40;;;9.45;;
72974;SDS011;61166;54.228;37.632;2022-12-13T15:10:40;113.43;;;14.55;;
72974;SDS011;61166;54.228;37.632;2022-12-13T15:13:47;24.60;;;7.75;;
72974;SDS011;61166;54.228;37.632;2022-12-13T15:16:21;23.95;;;7.88;;
72974;SDS011;61166;54.228;37.632;2022-12-13T15:24:28;17.58;;;6.28;;
72974;SDS011;61166;54.228;37.632;2022-12-13T15:26:57;8.85;;;3.25;;
72974;SDS011;61166;54.228;37.632;2022-12-13T15:29:27;10.38;;;3.45;;
72974;SDS011;61166;54.228;37.632;2022-12-13T15:31:56;5.13;;;1.53;;
72974;SDS011;61166;54.228;37.632;2022-12-13T15:37:05;8.35;;;3.25;;
72974;SDS011;61166;54.228;37.632;2022-12-13T15:39:56;5.63;;;1.80;;
72974;SDS011;61166;54.228;37.632;2022-12-13T15:42:28;14.23;;;5.32;;
72974;SDS011;61166;54.228;37.632;2022-12-13T15:44:58;8.90;;;3.30;;
72974;SDS011;61166;54.228;37.632;2022-12-13T15:47:27;12.55;;;4.32;;
72974;SDS011;61166;54.228;37.632;2022-12-13T15:52:28;10.23;;;3.05;;
72974;SDS011;61166;54.228;37.632;2022-12-13T15:57:46;11.10;;;3.93;;
72974;SDS011;61166;54.228;37.632;2022-12-13T16:03:02;5.13;;;1.83;;
72974;SDS011;61166;54.228;37.632;2022-12-13T16:05:35;6.85;;;2.58;;
72974;SDS011;61166;54.228;37.632;2022-12-13T16:08:13;8.80;;;2.80;;
72974;SDS011;61166;54.228;37.632;2022-12-13T16:10:52;3.30;;;1.43;;
72974;SDS011;61166;54.228;37.632;2022-12-13T16:15:53;6.95;;;2.72;;
72974;SDS011;61166;54.228;37.632;2022-12-13T16:18:41;5.75;;;2.20;;
72974;SDS011;61166;54.228;37.632;2022-12-13T16:21:10;3.67;;;1.13;;
72974;SDS011;61166;54.228;37.632;2022-12-13T16:23:37;8.50;;;3.60;;
72974;SDS011;61166;54.228;37.632;2022-12-13T16:26:03;12.75;;;4.50;;
72974;SDS011;61166;54.228;37.632;2022-12-13T16:28:34;5.65;;;2.08;;
72974;SDS011;61166;54.228;37.632;2022-12-13T16:31:03;11.27;;;3.75;;
72974;SDS011;61166;54.228;37.632;2022-12-13T16:33:39;5.50;;;1.70;;
72974;SDS011;61166;54.228;37.632;2022-12-13T16:36:07;15.37;;;6.00;;
72974;SDS011;61166;54.228;37.632;2022-12-13T16:38:34;8.15;;;2.55;;
72974;SDS011;61166;54.228;37.632;2022-12-13T16:41:01;8.60;;;3.25;;
72974;SDS011;61166;54.228;37.632;2022-12-13T16:43:39;6.97;;;2.50;;
72974;SDS011;61166;54.228;37.632;2022-12-13T16:46:12;9.95;;;3.78;;
72974;SDS011;61166;54.228;37.632;2022-12-13T16:49:00;13.30;;;4.03;;
72974;SDS011;61166;54.228;37.632;2022-12-13T16:51:31;19.85;;;5.88;;
72974;SDS011;61166;54.228;37.632;2022-12-13T16:53:58;12.63;;;4.80;;
72974;SDS011;61166;54.228;37.632;2022-12-13T16:56:24;11.10;;;3.92;;
72974;SDS011;61166;54.228;37.632;2022-12-13T16:58:51;20.35;;;6.32;;
72974;SDS011;61166;54.228;37.632;2022-12-13T17:01:18;6.43;;;1.67;;
72974;SDS011;61166;54.228;37.632;2022-12-13T17:03:45;14.10;;;4.85;;
72974;SDS011;61166;54.228;37.632;2022-12-13T17:06:13;16.35;;;6.75;;
72974;SDS011;61166;54.228;37.632;2022-12-13T17:08:45;14.23;;;5.85;;
72974;SDS011;61166;54.228;37.632;2022-12-13T17:11:11;10.90;;;4.43;;
72974;SDS011;61166;54.228;37.632;2022-12-13T17:13:43;13.87;;;6.40;;
72974;SDS011;61166;54.228;37.632;2022-12-13T17:16:10;10.68;;;3.53;;
72974;SDS011;61166;54.228;37.632;2022-12-13T17:18:36;6.45;;;3.55;;